Calera, Alabama
Current Conditions -  °F | °C
As of 5:53 PM on Sunday 21 Dec 2014 (Local Time) from KEET Reporting Station
Overcast Overcast  
Wind Chill: 52°   Ceiling: 2100
Heat Index: 52°   Visibility: 10mi
Dew Point: 47°   Wind: 0mph
Humidity: 83%   Direction: NA
Pressure: 30.06"   Gusts: NA
Location:  33.1°N, 86.75°W
Report Text: KEET 212353Z AUTO 00000KT 10SM OVC021 11/08 A3006 RMK AO2 SLP176 T01110083 10128 20106 55004
Loading
Personal Weather Stations






























Interactive Weather Map New forecast layout! Learn more

10-Day Weather Forecast

Advertisements
Track Severe Weather on mobile